createdAt,value
2017-12-15T00:01:28.606Z,95.40
2017-12-15T00:02:28.384Z,95.21
2017-12-15T00:04:22.982Z,95.31
2017-12-15T00:05:23.130Z,95.03
2017-12-15T00:07:14.661Z,94.93
2017-12-15T00:08:15.383Z,95.50
2017-12-15T00:10:07.321Z,95.78
2017-12-15T00:11:06.798Z,95.50
2017-12-15T00:13:00.067Z,95.69
2017-12-15T00:14:00.442Z,95.69
2017-12-15T00:15:52.851Z,95.69
2017-12-15T00:16:52.287Z,95.69
2017-12-15T00:18:46.486Z,95.50
2017-12-15T00:19:46.241Z,95.50
2017-12-15T00:21:38.453Z,95.59
2017-12-15T00:22:39.384Z,95.59
2017-12-15T00:24:32.159Z,95.40
2017-12-15T00:25:32.997Z,95.50
2017-12-15T00:27:25.255Z,95.69
2017-12-15T00:28:26.455Z,95.40
2017-12-15T00:30:18.670Z,95.59
2017-12-15T00:31:18.539Z,95.78
2017-12-15T00:33:11.330Z,95.59
2017-12-15T00:36:09.812Z,95.50
2017-12-15T00:37:08.783Z,95.40
2017-12-15T00:39:19.200Z,95.40
2017-12-15T00:39:58.892Z,95.50
2017-12-15T00:41:52.112Z,95.59
2017-12-15T00:42:52.812Z,95.59
2017-12-15T00:44:44.250Z,95.50
2017-12-15T00:45:44.478Z,95.40
2017-12-15T00:47:37.997Z,95.69
2017-12-15T00:48:37.943Z,95.69
2017-12-15T00:50:32.431Z,95.50
2017-12-15T00:51:31.757Z,95.50
2017-12-15T00:53:25.749Z,95.40
2017-12-15T00:54:24.449Z,95.59
2017-12-15T00:56:17.054Z,95.59
2017-12-15T00:57:17.265Z,95.59
2017-12-15T00:59:11.231Z,95.59
2017-12-15T01:00:10.446Z,95.50
2017-12-15T01:02:03.098Z,95.69
2017-12-15T01:03:03.712Z,95.69
2017-12-15T01:05:00.947Z,95.69
2017-12-15T01:06:00.801Z,95.50
2017-12-15T01:07:53.745Z,95.97
2017-12-15T01:08:54.097Z,95.59
2017-12-15T01:10:46.700Z,95.59
2017-12-15T01:11:47.266Z,95.50
2017-12-15T01:13:39.255Z,95.59
2017-12-15T01:14:39.459Z,95.69
2017-12-15T01:16:32.822Z,95.50
2017-12-15T01:17:33.324Z,95.21
2017-12-15T01:19:25.631Z,95.69
2017-12-15T01:20:26.035Z,95.59
2017-12-15T01:22:19.311Z,95.78
2017-12-15T01:23:18.905Z,95.59
2017-12-15T01:25:12.569Z,95.50
2017-12-15T01:26:12.475Z,95.59
2017-12-15T01:28:04.625Z,95.69
2017-12-15T01:29:05.572Z,95.59
2017-12-15T01:30:58.845Z,95.40
2017-12-15T01:31:59.762Z,95.40
2017-12-15T01:33:52.837Z,95.40
2017-12-15T01:34:53.510Z,95.59
2017-12-15T01:36:45.562Z,95.50
2017-12-15T01:37:46.146Z,95.69
2017-12-15T01:39:38.815Z,95.78
2017-12-15T01:40:39.140Z,95.69
2017-12-15T01:42:32.181Z,95.69
2017-12-15T01:43:32.351Z,95.40
2017-12-15T01:45:27.312Z,95.69
2017-12-15T01:46:28.846Z,96.07
2017-12-15T01:48:20.406Z,95.50
2017-12-15T01:49:22.070Z,95.40
2017-12-15T01:51:17.668Z,95.50
2017-12-15T01:54:12.602Z,95.59
2017-12-15T01:55:12.530Z,95.50
2017-12-15T01:57:04.820Z,95.40
2017-12-15T01:58:03.773Z,95.21
2017-12-15T01:59:57.038Z,95.12
2017-12-15T02:00:58.993Z,95.50
2017-12-15T02:02:50.751Z,95.50
2017-12-15T02:03:51.391Z,95.59
2017-12-15T02:05:43.860Z,95.50
2017-12-15T02:06:43.872Z,95.69
2017-12-15T02:08:37.123Z,95.69
2017-12-15T02:09:35.970Z,95.59
2017-12-15T02:11:28.634Z,95.69
2017-12-15T02:12:29.842Z,95.50
2017-12-15T02:14:21.493Z,95.59
2017-12-15T02:15:22.431Z,95.78
2017-12-15T02:17:14.403Z,95.59
2017-12-15T02:18:14.639Z,95.59
2017-12-15T02:20:07.371Z,95.50
2017-12-15T02:21:06.922Z,95.78
2017-12-15T02:22:59.799Z,95.69
2017-12-15T02:24:00.974Z,95.69
2017-12-15T02:25:52.785Z,95.50
2017-12-15T02:26:53.074Z,95.40
2017-12-15T02:28:46.267Z,95.40
2017-12-15T02:29:45.640Z,95.40
2017-12-15T02:31:39.693Z,95.69
2017-12-15T02:32:38.501Z,95.78
2017-12-15T02:34:31.829Z,95.59
2017-12-15T02:35:32.330Z,95.59
2017-12-15T02:37:23.996Z,95.78
2017-12-15T02:38:24.987Z,95.78
2017-12-15T02:40:17.492Z,95.97
2017-12-15T02:41:17.773Z,95.88
2017-12-15T02:43:11.150Z,95.78
2017-12-15T02:44:11.020Z,95.59
2017-12-15T02:46:03.899Z,95.40
2017-12-15T02:47:04.892Z,95.59
2017-12-15T02:48:57.037Z,95.59
2017-12-15T02:49:56.459Z,95.50
2017-12-15T02:51:50.672Z,95.50
2017-12-15T02:52:50.391Z,95.31
2017-12-15T02:54:45.054Z,95.50
2017-12-15T02:55:45.036Z,95.31
2017-12-15T02:57:37.208Z,95.40
2017-12-15T02:58:38.097Z,95.50
2017-12-15T03:00:29.703Z,95.69
2017-12-15T03:01:29.527Z,95.50
2017-12-15T03:03:21.444Z,95.78
2017-12-15T03:04:21.825Z,95.50
2017-12-15T03:06:14.105Z,95.69
2017-12-15T03:07:14.913Z,95.78
2017-12-15T03:09:07.691Z,95.97
2017-12-15T03:10:07.732Z,95.88
2017-12-15T03:12:00.118Z,95.59
2017-12-15T03:13:00.353Z,95.50
2017-12-15T03:14:52.714Z,95.59
2017-12-15T03:15:53.512Z,95.50
2017-12-15T03:17:45.392Z,95.88
2017-12-15T03:18:45.759Z,95.50
2017-12-15T03:20:37.829Z,95.31
2017-12-15T03:21:38.841Z,95.78
2017-12-15T03:23:31.232Z,95.31
2017-12-15T03:24:30.623Z,95.21
2017-12-15T03:26:24.000Z,95.31
2017-12-15T03:27:24.660Z,95.12
2017-12-15T03:29:16.439Z,95.12
2017-12-15T03:30:17.994Z,95.21
2017-12-15T03:32:10.095Z,95.03
2017-12-15T03:33:10.696Z,95.21
2017-12-15T03:35:03.709Z,95.21
2017-12-15T03:36:03.059Z,95.21
2017-12-15T03:37:58.488Z,94.93
2017-12-15T03:38:56.936Z,95.40
2017-12-15T03:40:51.204Z,95.03
2017-12-15T03:41:51.721Z,95.88
2017-12-15T03:43:43.991Z,95.40
2017-12-15T03:44:44.371Z,95.12
2017-12-15T03:46:40.459Z,95.31
2017-12-15T03:47:39.282Z,95.12
2017-12-15T03:49:30.251Z,95.31
2017-12-15T03:50:31.014Z,95.31
2017-12-15T03:52:22.834Z,95.21
2017-12-15T03:53:22.418Z,95.50
2017-12-15T03:55:16.220Z,95.31
2017-12-15T03:56:15.801Z,95.40
2017-12-15T03:58:10.206Z,95.31
2017-12-15T03:59:08.479Z,95.21
2017-12-15T04:01:02.772Z,95.03
2017-12-15T04:02:02.775Z,95.12
2017-12-15T04:03:55.147Z,95.50
2017-12-15T04:04:55.508Z,95.78
2017-12-15T04:06:47.812Z,95.31
2017-12-15T04:07:48.335Z,95.21
2017-12-15T04:09:42.015Z,95.21
2017-12-15T04:10:41.563Z,95.21
2017-12-15T04:12:34.196Z,95.03
2017-12-15T04:13:35.061Z,95.40
2017-12-15T04:15:27.196Z,95.03
2017-12-15T04:16:27.644Z,95.31
2017-12-15T04:18:21.622Z,95.03
2017-12-15T04:19:21.914Z,95.12
2017-12-15T04:21:14.209Z,95.21
2017-12-15T04:22:14.512Z,95.40
2017-12-15T04:24:07.487Z,95.31
2017-12-15T04:25:08.289Z,95.12
2017-12-15T04:27:10.373Z,95.31
2017-12-15T04:29:27.426Z,95.03
2017-12-15T04:31:51.720Z,95.12
2017-12-15T04:34:00.881Z,95.03
2017-12-15T04:35:01.058Z,95.12
2017-12-15T04:36:53.131Z,95.21
2017-12-15T04:37:53.130Z,95.12
2017-12-15T04:39:45.785Z,95.31
2017-12-15T04:40:46.182Z,95.21
2017-12-15T04:42:39.057Z,95.12
2017-12-15T04:43:39.456Z,95.03
2017-12-15T04:45:31.721Z,95.50
2017-12-15T04:46:32.140Z,95.40
2017-12-15T04:48:26.360Z,95.40
2017-12-15T04:49:25.829Z,95.78
2017-12-15T04:51:20.255Z,95.78
2017-12-15T04:52:18.112Z,95.31
2017-12-15T04:54:11.556Z,95.31
2017-12-15T04:55:11.849Z,95.31
2017-12-15T04:57:04.309Z,95.50
2017-12-15T04:58:06.329Z,95.59
2017-12-15T04:59:57.129Z,95.97
2017-12-15T05:00:58.508Z,95.50
2017-12-15T05:02:51.012Z,95.78
2017-12-15T05:03:51.182Z,95.31
2017-12-15T05:05:43.655Z,95.78
2017-12-15T05:06:42.397Z,95.59
2017-12-15T05:08:35.895Z,95.40
2017-12-15T05:09:34.816Z,95.50
2017-12-15T05:11:28.011Z,95.69
2017-12-15T05:14:20.924Z,95.50
2017-12-15T05:15:21.546Z,95.50
2017-12-15T05:17:13.942Z,95.40
2017-12-15T05:18:15.339Z,95.78
2017-12-15T05:20:07.472Z,95.21
2017-12-15T05:21:07.027Z,95.31
2017-12-15T05:22:59.134Z,95.31
2017-12-15T05:24:00.747Z,95.78
2017-12-15T05:25:52.405Z,95.59
2017-12-15T05:26:52.290Z,95.50
2017-12-15T05:28:45.087Z,95.31
2017-12-15T05:29:44.896Z,95.21
2017-12-15T05:31:37.198Z,95.21
2017-12-15T05:32:38.072Z,95.78
2017-12-15T05:34:30.970Z,95.59
2017-12-15T05:35:30.731Z,95.69
2017-12-15T05:37:23.479Z,95.40
2017-12-15T05:38:22.671Z,95.78
2017-12-15T05:40:15.804Z,95.31
2017-12-15T05:41:16.494Z,95.78
2017-12-15T05:43:09.371Z,95.50
2017-12-15T05:44:08.911Z,95.69
2017-12-15T05:46:00.946Z,95.88
2017-12-15T05:47:01.046Z,95.21
2017-12-15T05:48:54.190Z,95.50
2017-12-15T05:49:54.704Z,95.78
2017-12-15T05:51:46.219Z,95.31
2017-12-15T05:52:45.991Z,95.78
2017-12-15T05:54:39.115Z,95.59
2017-12-15T05:55:40.284Z,95.69
2017-12-15T05:57:31.983Z,95.78
2017-12-15T05:58:33.087Z,95.59
2017-12-15T06:00:24.710Z,95.88
2017-12-15T06:01:26.566Z,95.69
2017-12-15T06:03:18.277Z,95.78
2017-12-15T06:04:18.786Z,95.21
2017-12-15T06:06:11.403Z,95.69
2017-12-15T06:07:11.091Z,95.59
2017-12-15T06:09:02.699Z,95.59
2017-12-15T06:10:03.922Z,95.50
2017-12-15T06:11:56.087Z,95.78
2017-12-15T06:12:56.003Z,95.69
2017-12-15T06:14:48.810Z,95.59
2017-12-15T06:15:48.646Z,95.69
2017-12-15T06:17:41.888Z,95.50
2017-12-15T06:18:41.895Z,95.59
2017-12-15T06:20:33.808Z,95.69
2017-12-15T06:21:35.196Z,95.59
2017-12-15T06:23:27.491Z,95.50
2017-12-15T06:24:27.394Z,95.88
2017-12-15T06:26:20.307Z,95.59
2017-12-15T06:27:21.250Z,95.50
2017-12-15T06:29:12.437Z,95.59
2017-12-15T06:30:12.833Z,95.40
2017-12-15T06:32:05.619Z,95.69
2017-12-15T06:33:05.561Z,95.69
2017-12-15T06:34:58.788Z,95.78
2017-12-15T06:35:59.658Z,95.50
2017-12-15T06:37:51.397Z,95.69
2017-12-15T06:38:52.275Z,95.50
2017-12-15T06:40:43.996Z,95.40
2017-12-15T06:41:44.594Z,95.78
2017-12-15T06:43:36.946Z,95.59
2017-12-15T06:44:36.269Z,95.40
2017-12-15T06:46:29.656Z,95.59
2017-12-15T06:47:30.446Z,95.40
2017-12-15T06:49:22.342Z,95.88
2017-12-15T06:50:21.662Z,95.59
2017-12-15T06:52:14.508Z,95.50
2017-12-15T06:53:15.279Z,95.50
2017-12-15T06:55:08.831Z,95.50
2017-12-15T06:56:10.694Z,95.69
2017-12-15T06:58:01.221Z,95.59
2017-12-15T06:59:01.120Z,95.59
2017-12-15T07:00:57.460Z,95.40
2017-12-15T07:01:54.969Z,95.40
2017-12-15T07:03:47.167Z,95.97
2017-12-15T07:04:47.294Z,95.78
2017-12-15T07:06:39.353Z,95.69
2017-12-15T07:07:39.268Z,95.50
2017-12-15T07:09:32.338Z,95.88
2017-12-15T07:10:33.062Z,95.69
2017-12-15T07:12:25.675Z,95.59
2017-12-15T07:13:24.141Z,95.59
2017-12-15T07:15:17.440Z,95.50
2017-12-15T07:16:17.330Z,95.59
2017-12-15T07:18:10.112Z,95.40
2017-12-15T07:19:10.541Z,95.97
2017-12-15T07:21:03.836Z,95.59
2017-12-15T07:22:03.459Z,95.59
2017-12-15T07:23:56.385Z,95.59
2017-12-15T07:24:57.047Z,95.88
2017-12-15T07:26:50.661Z,95.97
2017-12-15T07:27:50.860Z,95.50
2017-12-15T07:29:42.607Z,95.40
2017-12-15T07:30:43.611Z,95.59
2017-12-15T07:32:35.353Z,95.59
2017-12-15T07:33:36.279Z,95.40
2017-12-15T07:35:28.546Z,95.78
2017-12-15T07:36:29.071Z,95.59
2017-12-15T07:38:38.163Z,95.50
2017-12-15T07:39:36.720Z,95.40
2017-12-15T07:41:29.772Z,95.59
2017-12-15T07:42:30.210Z,95.50
2017-12-15T07:44:22.869Z,95.59
2017-12-15T07:45:23.136Z,95.69
2017-12-15T07:47:18.597Z,95.40
2017-12-15T07:48:19.138Z,95.78
2017-12-15T07:50:14.113Z,95.31
2017-12-15T07:51:13.414Z,95.31
2017-12-15T07:53:07.094Z,95.40
2017-12-15T07:54:07.861Z,95.21
2017-12-15T07:56:00.030Z,95.31
2017-12-15T07:57:02.741Z,95.31
2017-12-15T07:58:53.168Z,95.12
2017-12-15T07:59:52.841Z,95.21
2017-12-15T08:01:46.505Z,95.31
2017-12-15T08:02:47.693Z,94.93
2017-12-15T08:04:39.150Z,95.21
2017-12-15T08:05:40.537Z,95.50
2017-12-15T08:07:32.082Z,95.31
2017-12-15T08:08:33.474Z,95.21
2017-12-15T08:10:26.636Z,95.12
2017-12-15T08:11:25.501Z,95.21
2017-12-15T08:13:18.677Z,95.21
2017-12-15T08:14:18.216Z,95.03
2017-12-15T08:16:10.754Z,95.21
2017-12-15T08:17:10.961Z,95.03
2017-12-15T08:19:03.138Z,95.21
2017-12-15T08:20:04.187Z,95.21
2017-12-15T08:21:56.515Z,95.40
2017-12-15T08:22:56.708Z,96.07
2017-12-15T08:24:49.303Z,95.88
2017-12-15T08:25:50.615Z,95.59
2017-12-15T08:27:41.835Z,95.50
2017-12-15T08:28:43.388Z,95.50
2017-12-15T08:30:34.640Z,95.31
2017-12-15T08:31:35.535Z,95.59
2017-12-15T08:33:27.531Z,95.50
2017-12-15T08:34:27.761Z,95.88
2017-12-15T08:36:20.243Z,95.59
2017-12-15T08:37:21.441Z,95.50
2017-12-15T08:39:13.970Z,95.78
2017-12-15T08:40:14.363Z,95.40
2017-12-15T08:42:06.659Z,95.69
2017-12-15T08:43:06.142Z,95.40
2017-12-15T08:44:58.857Z,95.40
2017-12-15T08:47:12.428Z,95.59
2017-12-15T08:48:13.001Z,95.50
2017-12-15T08:50:07.022Z,95.88
2017-12-15T08:51:06.780Z,95.97
2017-12-15T08:52:57.291Z,95.78
2017-12-15T08:53:57.310Z,95.31
2017-12-15T08:55:49.921Z,95.31
2017-12-15T08:56:50.218Z,95.21
2017-12-15T08:58:42.693Z,95.03
2017-12-15T08:59:42.927Z,95.21
2017-12-15T09:01:35.459Z,95.21
2017-12-15T09:02:36.089Z,94.65
2017-12-15T09:04:28.235Z,94.84
2017-12-15T09:05:28.325Z,94.84
2017-12-15T09:07:21.071Z,94.74
2017-12-15T09:08:21.988Z,94.65
2017-12-15T09:10:13.515Z,94.74
2017-12-15T09:11:14.259Z,94.56
2017-12-15T09:13:06.666Z,94.84
2017-12-15T09:14:07.533Z,95.03
2017-12-15T09:15:59.304Z,94.84
2017-12-15T09:16:59.743Z,95.21
2017-12-15T09:18:54.532Z,94.84
2017-12-15T09:19:53.092Z,94.65
2017-12-15T09:21:55.475Z,94.93
2017-12-15T09:24:14.362Z,95.12
2017-12-15T09:26:34.864Z,94.65
2017-12-15T09:28:45.678Z,94.04
2017-12-15T09:29:46.496Z,94.18
2017-12-15T09:31:38.624Z,94.51
2017-12-15T09:32:39.892Z,94.60
2017-12-15T09:34:31.508Z,94.79
2017-12-15T09:35:32.771Z,94.98
2017-12-15T09:37:23.885Z,94.23
2017-12-15T09:38:24.640Z,94.13
2017-12-15T09:40:17.109Z,94.04
2017-12-15T09:41:17.929Z,94.32
2017-12-15T09:43:10.180Z,94.51
2017-12-15T09:44:09.644Z,94.42
2017-12-15T09:46:02.793Z,94.60
2017-12-15T09:47:03.418Z,94.60
2017-12-15T09:48:56.733Z,94.42
2017-12-15T09:51:50.407Z,94.32
2017-12-15T09:52:51.692Z,94.32
2017-12-15T09:54:43.043Z,94.60
2017-12-15T09:55:43.372Z,94.42
2017-12-15T09:57:34.663Z,94.23
2017-12-15T09:58:35.940Z,94.79
2017-12-15T10:00:27.440Z,94.13
2017-12-15T10:01:27.836Z,93.94
2017-12-15T10:03:20.048Z,93.94
2017-12-15T10:04:21.778Z,93.94
2017-12-15T10:06:14.211Z,94.51
2017-12-15T10:07:13.690Z,94.04
2017-12-15T10:09:05.611Z,93.94
2017-12-15T10:10:07.226Z,93.94
2017-12-15T10:11:58.254Z,93.94
2017-12-15T10:12:59.205Z,93.94
2017-12-15T10:14:51.067Z,94.04
2017-12-15T10:15:52.691Z,93.84
2017-12-15T10:17:43.758Z,93.94
2017-12-15T10:18:44.271Z,94.04
2017-12-15T10:20:36.446Z,94.13
2017-12-15T10:21:37.449Z,94.13
2017-12-15T10:23:30.256Z,93.94
2017-12-15T10:24:30.274Z,93.94
2017-12-15T10:26:22.423Z,94.04
2017-12-15T10:27:24.024Z,93.94
2017-12-15T10:29:15.299Z,94.13
2017-12-15T10:30:16.119Z,93.94
2017-12-15T10:32:08.816Z,94.13
2017-12-15T10:33:09.898Z,94.13
2017-12-15T10:35:02.140Z,94.13
2017-12-15T10:36:02.204Z,93.94
2017-12-15T10:37:54.723Z,93.75
2017-12-15T10:38:55.953Z,93.94
2017-12-15T10:40:47.338Z,94.13
2017-12-15T10:41:48.165Z,94.23
2017-12-15T10:43:41.616Z,93.94
2017-12-15T10:44:41.989Z,94.13
2017-12-15T10:46:34.469Z,94.13
2017-12-15T10:47:35.657Z,93.84
2017-12-15T10:49:27.190Z,93.75
2017-12-15T10:50:26.555Z,94.04
2017-12-15T10:52:20.802Z,94.23
2017-12-15T10:53:21.200Z,93.75
2017-12-15T10:55:14.554Z,94.04
2017-12-15T10:56:13.211Z,93.84
2017-12-15T10:58:05.673Z,93.84
2017-12-15T10:59:06.944Z,93.75
2017-12-15T11:01:00.728Z,94.13
2017-12-15T11:02:00.131Z,93.75
2017-12-15T11:03:53.022Z,94.04
2017-12-15T11:04:53.347Z,93.65
2017-12-15T11:06:46.320Z,93.65
2017-12-15T11:07:45.633Z,93.75
2017-12-15T11:09:38.511Z,93.75
2017-12-15T11:10:39.316Z,93.94
2017-12-15T11:12:31.577Z,93.94
2017-12-15T11:13:31.579Z,93.94
2017-12-15T11:15:23.810Z,94.04
2017-12-15T11:16:23.825Z,93.94
2017-12-15T11:18:16.523Z,94.13
2017-12-15T11:19:16.074Z,94.32
2017-12-15T11:21:09.485Z,94.13
2017-12-15T11:22:09.824Z,94.32
2017-12-15T11:24:01.823Z,94.04
2017-12-15T11:25:03.290Z,95.07
2017-12-15T11:26:56.122Z,94.89
2017-12-15T11:27:55.955Z,94.60
2017-12-15T11:29:48.832Z,94.98
2017-12-15T11:30:48.540Z,94.89
2017-12-15T11:32:43.220Z,94.98
2017-12-15T11:33:43.023Z,94.70
2017-12-15T11:35:36.720Z,94.98
2017-12-15T11:36:36.438Z,94.51
2017-12-15T11:38:28.263Z,94.51
2017-12-15T11:39:28.184Z,94.60
2017-12-15T11:41:21.845Z,94.42
2017-12-15T11:42:22.538Z,94.60
2017-12-15T11:44:14.282Z,94.60
2017-12-15T11:45:13.966Z,94.79
2017-12-15T11:47:07.553Z,94.89
2017-12-15T11:48:08.403Z,94.98
2017-12-15T11:49:59.690Z,94.98
2017-12-15T11:51:00.933Z,94.89
2017-12-15T11:52:54.686Z,94.60
2017-12-15T11:53:55.958Z,94.51
2017-12-15T11:55:47.269Z,94.60
2017-12-15T11:56:46.202Z,94.89
2017-12-15T11:58:37.999Z,94.60
2017-12-15T11:59:39.176Z,94.79
2017-12-15T12:01:31.353Z,94.51
2017-12-15T12:02:31.989Z,94.32
2017-12-15T12:04:26.074Z,94.13
2017-12-15T12:05:26.547Z,94.70
2017-12-15T12:07:21.365Z,94.04
2017-12-15T12:08:21.840Z,94.13
2017-12-15T12:10:13.626Z,94.51
2017-12-15T12:11:14.126Z,94.13
2017-12-15T12:13:06.902Z,94.98
2017-12-15T12:14:07.813Z,94.60
2017-12-15T12:15:59.154Z,94.89
2017-12-15T12:17:00.744Z,94.51
2017-12-15T12:18:52.155Z,94.89
2017-12-15T12:19:53.274Z,94.32
2017-12-15T12:21:45.652Z,94.89
2017-12-15T12:22:47.058Z,94.51
2017-12-15T12:24:39.340Z,94.13
2017-12-15T12:25:39.982Z,94.60
2017-12-15T12:27:32.762Z,94.42
2017-12-15T12:28:32.766Z,94.23
2017-12-15T12:30:26.142Z,94.60
2017-12-15T12:31:25.820Z,94.60
2017-12-15T12:33:17.829Z,94.89
2017-12-15T12:34:19.291Z,94.89
2017-12-15T12:36:11.478Z,94.13
2017-12-15T12:37:11.531Z,94.13
2017-12-15T12:39:03.304Z,94.04
2017-12-15T12:40:03.092Z,94.32
2017-12-15T12:41:56.650Z,94.32
2017-12-15T12:42:57.076Z,94.13
2017-12-15T12:44:49.361Z,94.23
2017-12-15T12:45:49.722Z,94.32
2017-12-15T12:47:45.520Z,94.32
2017-12-15T12:48:44.607Z,94.23
2017-12-15T12:50:37.940Z,93.84
2017-12-15T12:51:37.235Z,94.13
2017-12-15T12:53:30.991Z,94.13
2017-12-15T12:54:31.383Z,94.13
2017-12-15T12:56:24.267Z,93.84
2017-12-15T12:57:24.729Z,94.23
2017-12-15T12:59:16.380Z,94.32
2017-12-15T13:00:18.745Z,94.32
2017-12-15T13:02:10.368Z,94.42
2017-12-15T13:03:09.831Z,93.94
2017-12-15T13:05:03.187Z,94.04
2017-12-15T13:06:01.803Z,93.84
2017-12-15T13:07:56.322Z,94.32
2017-12-15T13:08:56.551Z,94.32
2017-12-15T13:10:49.180Z,94.32
2017-12-15T13:11:49.055Z,94.51
2017-12-15T13:13:42.448Z,94.32
2017-12-15T13:14:42.180Z,94.23
2017-12-15T13:16:35.444Z,94.32
2017-12-15T13:17:34.942Z,94.32
2017-12-15T13:19:27.333Z,94.23
2017-12-15T13:20:27.853Z,94.32
2017-12-15T13:22:21.673Z,94.42
2017-12-15T13:23:21.942Z,94.04
2017-12-15T13:25:14.408Z,94.23
2017-12-15T13:26:15.166Z,94.04
2017-12-15T13:28:08.488Z,94.23
2017-12-15T13:29:07.560Z,94.32
2017-12-15T13:31:00.456Z,93.84
2017-12-15T13:32:00.769Z,94.04
2017-12-15T13:33:55.247Z,94.13
2017-12-15T13:34:54.082Z,93.84
2017-12-15T13:36:48.959Z,94.32
2017-12-15T13:37:48.255Z,94.23
2017-12-15T13:39:40.990Z,93.94
2017-12-15T13:40:39.752Z,93.84
2017-12-15T13:42:32.824Z,93.75
2017-12-15T13:43:33.293Z,93.94
2017-12-15T13:45:27.880Z,93.84
2017-12-15T13:46:27.618Z,94.23
2017-12-15T13:48:19.642Z,94.42
2017-12-15T13:49:18.552Z,94.51
2017-12-15T13:51:13.051Z,94.04
2017-12-15T13:52:12.878Z,94.60
2017-12-15T13:54:07.253Z,94.51
2017-12-15T13:55:05.343Z,93.84
2017-12-15T13:56:57.767Z,93.84
2017-12-15T13:57:57.237Z,93.94
2017-12-15T13:59:50.959Z,93.94
2017-12-15T14:00:49.563Z,93.84
2017-12-15T14:02:42.960Z,94.32
2017-12-15T14:03:42.748Z,94.51
2017-12-15T14:05:35.544Z,94.13
2017-12-15T14:06:35.970Z,94.32
2017-12-15T14:08:28.695Z,94.13
2017-12-15T14:09:28.323Z,94.60
2017-12-15T14:11:21.498Z,94.89
2017-12-15T14:13:51.019Z,94.42
2017-12-15T14:16:11.640Z,94.70
2017-12-15T14:18:31.165Z,95.36
2017-12-15T14:20:53.262Z,94.98
2017-12-15T14:21:43.759Z,94.98
2017-12-15T14:23:36.050Z,94.89
2017-12-15T14:24:36.620Z,95.07
2017-12-15T14:26:28.971Z,94.79
2017-12-15T14:27:29.517Z,94.70
2017-12-15T14:29:21.126Z,94.70
2017-12-15T14:30:21.954Z,94.79
2017-12-15T14:32:14.269Z,94.70
2017-12-15T14:33:14.269Z,94.70
2017-12-15T14:35:06.300Z,94.98
2017-12-15T14:36:08.024Z,94.51
2017-12-15T14:37:59.402Z,94.42
2017-12-15T14:39:00.475Z,94.70
2017-12-15T14:40:52.922Z,94.79
2017-12-15T14:41:52.781Z,94.89
2017-12-15T14:43:45.204Z,95.07
2017-12-15T14:44:46.409Z,94.89
2017-12-15T14:46:39.736Z,94.98
2017-12-15T14:47:41.930Z,95.17
2017-12-15T14:49:35.692Z,94.79
2017-12-15T14:50:34.387Z,94.89
2017-12-15T14:52:30.647Z,94.89
2017-12-15T14:53:26.519Z,95.07
2017-12-15T14:55:20.702Z,94.89
2017-12-15T14:56:21.780Z,95.07
2017-12-15T14:58:15.159Z,94.89
2017-12-15T14:59:14.159Z,95.07
2017-12-15T15:01:06.664Z,94.98
2017-12-15T15:02:08.620Z,94.98
2017-12-15T15:04:01.065Z,94.70
2017-12-15T15:05:00.527Z,95.17
2017-12-15T15:06:53.515Z,95.07
2017-12-15T15:07:53.580Z,94.98
2017-12-15T15:09:45.583Z,95.07
2017-12-15T15:10:46.251Z,95.07
2017-12-15T15:12:39.179Z,94.79
2017-12-15T15:13:39.702Z,95.17
2017-12-15T15:15:31.793Z,94.79
2017-12-15T15:16:32.237Z,95.07
2017-12-15T15:18:26.790Z,95.07
2017-12-15T15:19:25.018Z,95.07
2017-12-15T15:21:17.672Z,95.17
2017-12-15T15:22:18.048Z,94.79
2017-12-15T15:24:10.630Z,95.17
2017-12-15T15:25:11.700Z,94.70
2017-12-15T15:27:03.643Z,94.70
2017-12-15T15:28:05.180Z,94.79
2017-12-15T15:29:56.329Z,94.79
2017-12-15T15:30:56.283Z,95.17
2017-12-15T15:32:49.629Z,94.98
2017-12-15T15:33:50.924Z,95.26
2017-12-15T15:35:42.328Z,95.07
2017-12-15T15:36:43.395Z,95.07
2017-12-15T15:38:35.379Z,95.21
2017-12-15T15:39:36.081Z,94.70
2017-12-15T15:41:27.790Z,94.93
2017-12-15T15:42:28.319Z,94.93
2017-12-15T15:44:20.367Z,94.79
2017-12-15T15:45:20.962Z,95.12
2017-12-15T15:47:14.809Z,94.84
2017-12-15T15:48:14.474Z,94.84
2017-12-15T15:50:10.998Z,95.03
2017-12-15T15:51:08.083Z,94.74
2017-12-15T15:53:00.935Z,95.12
2017-12-15T15:54:00.459Z,94.74
2017-12-15T15:55:53.698Z,94.51
2017-12-15T15:56:52.607Z,94.46
2017-12-15T15:58:46.928Z,94.65
2017-12-15T15:59:47.419Z,94.74
2017-12-15T16:01:40.218Z,94.65
2017-12-15T16:02:40.018Z,94.74
2017-12-15T16:04:31.738Z,94.65
2017-12-15T16:05:33.416Z,94.93
2017-12-15T16:07:24.394Z,94.46
2017-12-15T16:08:25.411Z,94.74
2017-12-15T16:10:17.765Z,94.46
2017-12-15T16:11:16.830Z,94.93
2017-12-15T16:13:09.555Z,94.74
2017-12-15T16:14:09.561Z,94.74
2017-12-15T16:16:03.278Z,94.84
2017-12-15T16:17:02.208Z,94.74
2017-12-15T16:18:55.162Z,94.74
2017-12-15T16:19:54.888Z,95.69
2017-12-15T16:21:48.052Z,94.65
2017-12-15T16:22:48.272Z,94.46
2017-12-15T16:24:40.543Z,95.21
2017-12-15T16:25:40.394Z,94.84
2017-12-15T16:27:33.612Z,94.46
2017-12-15T16:28:33.364Z,95.03
2017-12-15T16:30:25.744Z,94.46
2017-12-15T16:31:26.373Z,94.84
2017-12-15T16:33:18.726Z,95.50
2017-12-15T16:34:18.529Z,95.69
2017-12-15T16:36:12.263Z,94.74
2017-12-15T16:37:11.281Z,95.03
2017-12-15T16:39:04.767Z,95.12
2017-12-15T16:40:05.229Z,94.84
2017-12-15T16:41:57.327Z,94.84
2017-12-15T16:42:59.840Z,94.84
2017-12-15T16:44:50.651Z,94.65
2017-12-15T16:45:50.097Z,94.84
2017-12-15T16:47:43.301Z,94.93
2017-12-15T16:48:44.578Z,95.03
2017-12-15T16:50:36.600Z,95.03
2017-12-15T16:51:38.159Z,95.03
2017-12-15T16:53:31.076Z,94.84
2017-12-15T16:54:30.135Z,94.84
2017-12-15T16:56:24.510Z,95.59
2017-12-15T16:57:23.218Z,95.69
2017-12-15T16:59:16.140Z,95.59
2017-12-15T17:00:16.805Z,95.03
2017-12-15T17:02:08.568Z,94.46
2017-12-15T17:03:09.059Z,95.40
2017-12-15T17:05:01.648Z,94.74
2017-12-15T17:05:59.997Z,95.03
2017-12-15T17:07:55.441Z,94.84
2017-12-15T17:08:54.860Z,94.93
2017-12-15T17:10:46.402Z,94.74
2017-12-15T17:11:47.448Z,94.74
2017-12-15T17:13:43.005Z,94.74
2017-12-15T17:14:41.461Z,94.84
2017-12-15T17:16:35.908Z,95.03
2017-12-15T17:17:35.733Z,94.74
2017-12-15T17:19:27.061Z,94.84
2017-12-15T17:20:27.884Z,95.03
2017-12-15T17:22:20.413Z,94.84
2017-12-15T17:23:20.498Z,94.93
2017-12-15T17:25:12.188Z,94.84
2017-12-15T17:26:13.098Z,94.84
2017-12-15T17:28:18.001Z,95.03
2017-12-15T17:29:07.875Z,95.03
2017-12-15T17:30:59.240Z,94.84
2017-12-15T17:32:00.503Z,94.84
2017-12-15T17:33:52.605Z,94.93
2017-12-15T17:34:52.163Z,94.65
2017-12-15T17:36:45.382Z,94.93
2017-12-15T17:37:45.911Z,94.46
2017-12-15T17:39:38.139Z,94.93
2017-12-15T17:40:37.493Z,94.84
2017-12-15T17:42:32.189Z,94.65
2017-12-15T17:43:31.617Z,94.84
2017-12-15T17:45:25.238Z,94.84
2017-12-15T17:46:25.050Z,95.03
2017-12-15T17:48:19.068Z,94.46
2017-12-15T17:49:18.131Z,94.46
2017-12-15T17:51:13.327Z,94.18
2017-12-15T17:52:11.805Z,94.08
2017-12-15T17:54:05.290Z,94.46
2017-12-15T17:55:04.426Z,95.21
2017-12-15T17:56:57.648Z,95.03
2017-12-15T17:57:59.615Z,94.84
2017-12-15T18:00:04.665Z,95.03
2017-12-15T18:00:50.862Z,94.84
2017-12-15T18:02:47.822Z,94.74
2017-12-15T18:03:47.102Z,94.27
2017-12-15T18:05:40.330Z,94.18
2017-12-15T18:06:40.873Z,94.46
2017-12-15T18:08:36.922Z,94.56
2017-12-15T18:09:35.101Z,95.21
2017-12-15T18:11:29.586Z,94.46
2017-12-15T18:12:30.696Z,95.40
2017-12-15T18:14:24.539Z,94.84
2017-12-15T18:15:25.532Z,94.27
2017-12-15T18:17:17.031Z,94.56
2017-12-15T18:18:18.379Z,95.40
2017-12-15T18:20:10.844Z,94.46
2017-12-15T18:21:10.113Z,95.50
2017-12-15T18:23:04.644Z,94.46
2017-12-15T18:24:05.424Z,94.18
2017-12-15T18:25:57.313Z,94.46
2017-12-15T18:26:58.401Z,94.27
2017-12-15T18:28:53.032Z,95.03
2017-12-15T18:29:53.278Z,95.12
2017-12-15T18:31:46.767Z,94.27
2017-12-15T18:32:47.312Z,94.84
2017-12-15T18:34:40.616Z,95.03
2017-12-15T18:35:41.496Z,94.84
2017-12-15T18:37:33.916Z,95.31
2017-12-15T18:38:34.178Z,94.84
2017-12-15T18:40:27.092Z,94.27
2017-12-15T18:41:26.976Z,94.37
2017-12-15T18:43:19.566Z,95.31
2017-12-15T18:44:20.614Z,95.12
2017-12-15T18:46:13.297Z,94.46
2017-12-15T18:47:14.237Z,95.31
2017-12-15T18:49:06.354Z,95.03
2017-12-15T18:50:05.895Z,95.12